sensor_id;sensor_type;location;lat;lon;timestamp;temperature;humidity
16968;DHT22;8600;54.338;10.128;2022-07-12T00:01:25;14.30;99.90
16968;DHT22;8600;54.338;10.128;2022-07-12T00:03:52;14.30;99.90
16968;DHT22;8600;54.338;10.128;2022-07-12T00:06:18;14.30;99.90
16968;DHT22;8600;54.338;10.128;2022-07-12T00:08:45;14.30;99.90
16968;DHT22;8600;54.338;10.128;2022-07-12T00:11:13;14.30;99.90
16968;DHT22;8600;54.338;10.128;2022-07-12T00:13:39;14.20;99.90
16968;DHT22;8600;54.338;10.128;2022-07-12T00:16:07;14.20;99.90
16968;DHT22;8600;54.338;10.128;2022-07-12T00:18:35;14.20;99.90
16968;DHT22;8600;54.338;10.128;2022-07-12T00:21:02;14.20;99.90
16968;DHT22;8600;54.338;10.128;2022-07-12T00:23:29;14.10;99.90
16968;DHT22;8600;54.338;10.128;2022-07-12T00:25:56;14.10;99.90
16968;DHT22;8600;54.338;10.128;2022-07-12T00:28:22;14.10;99.90
16968;DHT22;8600;54.338;10.128;2022-07-12T00:30:49;14.10;99.90
16968;DHT22;8600;54.338;10.128;2022-07-12T00:33:16;14.10;99.90
16968;DHT22;8600;54.338;10.128;2022-07-12T00:35:44;14.00;99.90
16968;DHT22;8600;54.338;10.128;2022-07-12T00:38:11;14.00;99.90
16968;DHT22;8600;54.338;10.128;2022-07-12T00:40:38;14.00;99.90
16968;DHT22;8600;54.338;10.128;2022-07-12T00:43:05;13.90;99.90
16968;DHT22;8600;54.338;10.128;2022-07-12T00:45:32;13.90;99.90
16968;DHT22;8600;54.338;10.128;2022-07-12T00:47:59;13.80;99.90
16968;DHT22;8600;54.338;10.128;2022-07-12T00:50:26;13.80;99.90
16968;DHT22;8600;54.338;10.128;2022-07-12T00:52:55;13.80;99.90
16968;DHT22;8600;54.338;10.128;2022-07-12T00:55:22;13.80;99.90
16968;DHT22;8600;54.338;10.128;2022-07-12T00:57:50;13.80;99.90
16968;DHT22;8600;54.338;10.128;2022-07-12T01:00:19;13.70;99.90
16968;DHT22;8600;54.338;10.128;2022-07-12T01:02:47;13.70;99.90
16968;DHT22;8600;54.338;10.128;2022-07-12T01:05:14;13.60;99.90
16968;DHT22;8600;54.338;10.128;2022-07-12T01:07:41;13.60;99.90
16968;DHT22;8600;54.338;10.128;2022-07-12T01:10:09;13.70;99.90
16968;DHT22;8600;54.338;10.128;2022-07-12T01:12:36;13.60;99.90
16968;DHT22;8600;54.338;10.128;2022-07-12T01:15:05;13.60;99.90
16968;DHT22;8600;54.338;10.128;2022-07-12T01:17:32;13.50;99.90
16968;DHT22;8600;54.338;10.128;2022-07-12T01:20:00;13.50;99.90
16968;DHT22;8600;54.338;10.128;2022-07-12T01:22:31;13.50;99.90
16968;DHT22;8600;54.338;10.128;2022-07-12T01:24:59;13.50;99.90
16968;DHT22;8600;54.338;10.128;2022-07-12T01:27:27;13.50;99.90
16968;DHT22;8600;54.338;10.128;2022-07-12T01:29:54;13.50;99.90
16968;DHT22;8600;54.338;10.128;2022-07-12T01:32:22;13.50;99.90
16968;DHT22;8600;54.338;10.128;2022-07-12T01:34:54;13.50;99.90
16968;DHT22;8600;54.338;10.128;2022-07-12T01:37:23;13.40;99.90
16968;DHT22;8600;54.338;10.128;2022-07-12T01:39:53;13.40;99.90
16968;DHT22;8600;54.338;10.128;2022-07-12T01:42:22;13.40;99.90
16968;DHT22;8600;54.338;10.128;2022-07-12T01:44:50;13.40;99.90
16968;DHT22;8600;54.338;10.128;2022-07-12T01:47:17;13.40;99.90
16968;DHT22;8600;54.338;10.128;2022-07-12T01:49:44;13.40;99.90
16968;DHT22;8600;54.338;10.128;2022-07-12T01:52:12;13.40;99.90
16968;DHT22;8600;54.338;10.128;2022-07-12T01:54:39;13.30;99.90
16968;DHT22;8600;54.338;10.128;2022-07-12T01:57:07;13.30;99.90
16968;DHT22;8600;54.338;10.128;2022-07-12T01:59:35;13.30;99.90
16968;DHT22;8600;54.338;10.128;2022-07-12T02:02:03;13.30;99.90
16968;DHT22;8600;54.338;10.128;2022-07-12T02:04:30;13.30;99.90
16968;DHT22;8600;54.338;10.128;2022-07-12T02:06:57;13.30;99.90
16968;DHT22;8600;54.338;10.128;2022-07-12T02:09:24;13.30;99.90
16968;DHT22;8600;54.338;10.128;2022-07-12T02:11:51;13.20;99.90
16968;DHT22;8600;54.338;10.128;2022-07-12T02:14:18;13.20;99.90
16968;DHT22;8600;54.338;10.128;2022-07-12T02:16:46;13.10;99.90
16968;DHT22;8600;54.338;10.128;2022-07-12T02:19:14;13.10;99.90
16968;DHT22;8600;54.338;10.128;2022-07-12T02:21:41;13.10;99.90
16968;DHT22;8600;54.338;10.128;2022-07-12T02:24:08;13.10;99.90
16968;DHT22;8600;54.338;10.128;2022-07-12T02:26:36;13.10;99.90
16968;DHT22;8600;54.338;10.128;2022-07-12T02:29:03;13.00;99.90
16968;DHT22;8600;54.338;10.128;2022-07-12T02:31:31;13.00;99.90
16968;DHT22;8600;54.338;10.128;2022-07-12T02:33:59;13.00;99.90
16968;DHT22;8600;54.338;10.128;2022-07-12T02:36:26;13.00;99.90
16968;DHT22;8600;54.338;10.128;2022-07-12T02:38:53;13.00;99.90
16968;DHT22;8600;54.338;10.128;2022-07-12T02:41:20;13.00;99.90
16968;DHT22;8600;54.338;10.128;2022-07-12T02:43:47;13.00;99.90
16968;DHT22;8600;54.338;10.128;2022-07-12T02:46:14;12.90;99.90
16968;DHT22;8600;54.338;10.128;2022-07-12T02:48:41;12.90;99.90
16968;DHT22;8600;54.338;10.128;2022-07-12T02:51:10;12.90;99.90
16968;DHT22;8600;54.338;10.128;2022-07-12T02:53:37;12.90;99.90
16968;DHT22;8600;54.338;10.128;2022-07-12T02:56:05;12.80;99.90
16968;DHT22;8600;54.338;10.128;2022-07-12T02:58:33;12.90;99.90
16968;DHT22;8600;54.338;10.128;2022-07-12T03:01:00;12.90;99.90
16968;DHT22;8600;54.338;10.128;2022-07-12T03:03:27;12.90;99.90
16968;DHT22;8600;54.338;10.128;2022-07-12T03:05:54;12.90;99.90
16968;DHT22;8600;54.338;10.128;2022-07-12T03:08:22;13.00;99.90
16968;DHT22;8600;54.338;10.128;2022-07-12T03:10:49;13.00;99.90
16968;DHT22;8600;54.338;10.128;2022-07-12T03:13:17;13.00;99.90
16968;DHT22;8600;54.338;10.128;2022-07-12T03:15:43;13.00;99.90
16968;DHT22;8600;54.338;10.128;2022-07-12T03:18:12;13.00;99.90
16968;DHT22;8600;54.338;10.128;2022-07-12T03:20:39;13.00;99.90
16968;DHT22;8600;54.338;10.128;2022-07-12T03:23:06;13.10;99.90
16968;DHT22;8600;54.338;10.128;2022-07-12T03:25:35;13.10;99.90
16968;DHT22;8600;54.338;10.128;2022-07-12T03:28:02;13.10;99.90
16968;DHT22;8600;54.338;10.128;2022-07-12T03:30:29;13.20;99.90
16968;DHT22;8600;54.338;10.128;2022-07-12T03:32:56;13.20;99.90
16968;DHT22;8600;54.338;10.128;2022-07-12T03:35:23;13.20;99.90
16968;DHT22;8600;54.338;10.128;2022-07-12T03:37:51;13.30;99.90
16968;DHT22;8600;54.338;10.128;2022-07-12T03:40:19;13.30;99.90
16968;DHT22;8600;54.338;10.128;2022-07-12T03:42:48;13.30;99.90
16968;DHT22;8600;54.338;10.128;2022-07-12T03:45:16;13.30;99.90
16968;DHT22;8600;54.338;10.128;2022-07-12T03:47:43;13.30;99.90
16968;DHT22;8600;54.338;10.128;2022-07-12T03:50:11;13.40;99.90
16968;DHT22;8600;54.338;10.128;2022-07-12T03:52:39;13.40;99.90
16968;DHT22;8600;54.338;10.128;2022-07-12T03:55:07;13.40;99.90
16968;DHT22;8600;54.338;10.128;2022-07-12T03:57:34;13.50;99.90
16968;DHT22;8600;54.338;10.128;2022-07-12T04:00:05;13.50;99.90
16968;DHT22;8600;54.338;10.128;2022-07-12T04:02:34;13.50;99.90
16968;DHT22;8600;54.338;10.128;2022-07-12T04:05:01;13.60;99.90
16968;DHT22;8600;54.338;10.128;2022-07-12T04:07:28;13.60;99.90
16968;DHT22;8600;54.338;10.128;2022-07-12T04:09:55;13.60;99.90
16968;DHT22;8600;54.338;10.128;2022-07-12T04:12:22;13.70;99.90
16968;DHT22;8600;54.338;10.128;2022-07-12T04:14:49;13.70;99.90
16968;DHT22;8600;54.338;10.128;2022-07-12T04:17:17;13.60;99.90
16968;DHT22;8600;54.338;10.128;2022-07-12T04:19:44;13.60;99.90
16968;DHT22;8600;54.338;10.128;2022-07-12T04:22:11;13.60;99.90
16968;DHT22;8600;54.338;10.128;2022-07-12T04:24:38;13.60;99.90
16968;DHT22;8600;54.338;10.128;2022-07-12T04:27:05;13.60;99.90
16968;DHT22;8600;54.338;10.128;2022-07-12T04:29:32;13.70;99.90
16968;DHT22;8600;54.338;10.128;2022-07-12T04:31:59;13.80;99.90
16968;DHT22;8600;54.338;10.128;2022-07-12T04:34:27;13.80;99.90
16968;DHT22;8600;54.338;10.128;2022-07-12T04:36:54;13.90;99.90
16968;DHT22;8600;54.338;10.128;2022-07-12T04:39:21;13.80;99.90
16968;DHT22;8600;54.338;10.128;2022-07-12T04:41:48;13.80;99.90
16968;DHT22;8600;54.338;10.128;2022-07-12T04:44:15;13.80;99.90
16968;DHT22;8600;54.338;10.128;2022-07-12T04:46:42;13.80;99.90
16968;DHT22;8600;54.338;10.128;2022-07-12T04:49:09;13.80;99.90
16968;DHT22;8600;54.338;10.128;2022-07-12T04:51:37;13.80;99.90
16968;DHT22;8600;54.338;10.128;2022-07-12T04:54:04;13.90;99.90
16968;DHT22;8600;54.338;10.128;2022-07-12T04:56:31;14.00;99.90
16968;DHT22;8600;54.338;10.128;2022-07-12T04:58:58;14.10;99.90
16968;DHT22;8600;54.338;10.128;2022-07-12T05:01:25;14.20;99.90
16968;DHT22;8600;54.338;10.128;2022-07-12T05:03:52;14.20;99.90
16968;DHT22;8600;54.338;10.128;2022-07-12T05:06:19;14.20;99.90
16968;DHT22;8600;54.338;10.128;2022-07-12T05:08:47;14.20;99.90
16968;DHT22;8600;54.338;10.128;2022-07-12T05:11:14;14.30;99.90
16968;DHT22;8600;54.338;10.128;2022-07-12T05:13:41;14.20;99.90
16968;DHT22;8600;54.338;10.128;2022-07-12T05:16:08;14.40;99.90
16968;DHT22;8600;54.338;10.128;2022-07-12T05:18:35;14.40;99.90
16968;DHT22;8600;54.338;10.128;2022-07-12T05:21:02;14.40;99.90
16968;DHT22;8600;54.338;10.128;2022-07-12T05:23:29;14.50;99.90
16968;DHT22;8600;54.338;10.128;2022-07-12T05:25:57;14.50;99.90
16968;DHT22;8600;54.338;10.128;2022-07-12T05:28:24;14.60;99.90
16968;DHT22;8600;54.338;10.128;2022-07-12T05:30:51;14.60;99.90
16968;DHT22;8600;54.338;10.128;2022-07-12T05:33:19;14.70;99.90
16968;DHT22;8600;54.338;10.128;2022-07-12T05:35:45;14.80;99.90
16968;DHT22;8600;54.338;10.128;2022-07-12T05:38:13;14.80;99.90
16968;DHT22;8600;54.338;10.128;2022-07-12T05:40:40;14.90;99.90
16968;DHT22;8600;54.338;10.128;2022-07-12T05:43:09;14.90;99.90
16968;DHT22;8600;54.338;10.128;2022-07-12T05:45:35;14.80;99.90
16968;DHT22;8600;54.338;10.128;2022-07-12T05:48:03;14.90;99.90
16968;DHT22;8600;54.338;10.128;2022-07-12T05:50:30;15.00;99.90
16968;DHT22;8600;54.338;10.128;2022-07-12T05:52:57;15.00;99.90
16968;DHT22;8600;54.338;10.128;2022-07-12T05:55:43;15.00;99.90
16968;DHT22;8600;54.338;10.128;2022-07-12T05:58:12;15.10;99.90
16968;DHT22;8600;54.338;10.128;2022-07-12T06:00:38;15.10;99.90
16968;DHT22;8600;54.338;10.128;2022-07-12T06:03:05;15.10;99.90
16968;DHT22;8600;54.338;10.128;2022-07-12T06:05:32;15.10;99.90
16968;DHT22;8600;54.338;10.128;2022-07-12T06:07:59;15.00;99.90
16968;DHT22;8600;54.338;10.128;2022-07-12T06:10:26;15.10;99.90
16968;DHT22;8600;54.338;10.128;2022-07-12T06:12:53;15.20;99.90
16968;DHT22;8600;54.338;10.128;2022-07-12T06:15:21;15.10;99.90
16968;DHT22;8600;54.338;10.128;2022-07-12T06:17:50;15.20;99.90
16968;DHT22;8600;54.338;10.128;2022-07-12T06:20:17;15.20;99.90
16968;DHT22;8600;54.338;10.128;2022-07-12T06:22:43;15.20;99.90
16968;DHT22;8600;54.338;10.128;2022-07-12T06:25:10;15.20;99.90
16968;DHT22;8600;54.338;10.128;2022-07-12T06:27:37;15.30;99.90
16968;DHT22;8600;54.338;10.128;2022-07-12T06:30:06;15.30;99.90
16968;DHT22;8600;54.338;10.128;2022-07-12T06:32:34;15.30;99.90
16968;DHT22;8600;54.338;10.128;2022-07-12T06:35:01;15.40;99.90
16968;DHT22;8600;54.338;10.128;2022-07-12T06:37:28;15.50;99.90
16968;DHT22;8600;54.338;10.128;2022-07-12T06:39:55;15.50;99.90
16968;DHT22;8600;54.338;10.128;2022-07-12T06:42:22;15.60;99.90
16968;DHT22;8600;54.338;10.128;2022-07-12T06:44:53;15.60;99.90
16968;DHT22;8600;54.338;10.128;2022-07-12T06:47:20;15.60;99.90
16968;DHT22;8600;54.338;10.128;2022-07-12T06:49:48;15.70;99.90
16968;DHT22;8600;54.338;10.128;2022-07-12T06:52:15;15.70;99.90
16968;DHT22;8600;54.338;10.128;2022-07-12T06:54:42;15.70;99.90
16968;DHT22;8600;54.338;10.128;2022-07-12T06:57:09;15.80;99.90
16968;DHT22;8600;54.338;10.128;2022-07-12T06:59:36;15.80;99.90
16968;DHT22;8600;54.338;10.128;2022-07-12T07:02:04;15.80;99.90
16968;DHT22;8600;54.338;10.128;2022-07-12T07:04:31;15.80;99.90
16968;DHT22;8600;54.338;10.128;2022-07-12T07:06:59;15.90;99.90
16968;DHT22;8600;54.338;10.128;2022-07-12T07:09:26;15.90;99.90
16968;DHT22;8600;54.338;10.128;2022-07-12T07:11:53;15.80;99.90
16968;DHT22;8600;54.338;10.128;2022-07-12T07:14:20;15.90;99.90
16968;DHT22;8600;54.338;10.128;2022-07-12T07:16:47;15.80;99.90
16968;DHT22;8600;54.338;10.128;2022-07-12T07:19:13;15.80;99.90
16968;DHT22;8600;54.338;10.128;2022-07-12T07:21:40;15.80;99.90
16968;DHT22;8600;54.338;10.128;2022-07-12T07:24:09;15.80;99.90
16968;DHT22;8600;54.338;10.128;2022-07-12T07:26:36;15.80;99.90
16968;DHT22;8600;54.338;10.128;2022-07-12T07:29:03;15.90;99.90
16968;DHT22;8600;54.338;10.128;2022-07-12T07:31:47;16.00;99.90
16968;DHT22;8600;54.338;10.128;2022-07-12T07:34:14;15.90;99.90
16968;DHT22;8600;54.338;10.128;2022-07-12T07:36:41;15.90;99.90
16968;DHT22;8600;54.338;10.128;2022-07-12T07:39:09;16.00;99.90
16968;DHT22;8600;54.338;10.128;2022-07-12T07:41:38;16.00;99.90
16968;DHT22;8600;54.338;10.128;2022-07-12T07:44:05;16.10;99.90
16968;DHT22;8600;54.338;10.128;2022-07-12T07:46:32;16.20;99.90
16968;DHT22;8600;54.338;10.128;2022-07-12T07:48:59;16.10;99.90
16968;DHT22;8600;54.338;10.128;2022-07-12T07:51:26;16.10;99.90
16968;DHT22;8600;54.338;10.128;2022-07-12T07:53:52;16.20;99.90
16968;DHT22;8600;54.338;10.128;2022-07-12T07:56:21;16.20;99.90
16968;DHT22;8600;54.338;10.128;2022-07-12T07:58:48;16.30;99.90
16968;DHT22;8600;54.338;10.128;2022-07-12T08:01:16;16.30;99.90
16968;DHT22;8600;54.338;10.128;2022-07-12T08:03:43;16.40;99.90
16968;DHT22;8600;54.338;10.128;2022-07-12T08:06:10;16.40;99.90
16968;DHT22;8600;54.338;10.128;2022-07-12T08:08:37;16.40;99.90
16968;DHT22;8600;54.338;10.128;2022-07-12T08:11:04;16.40;99.90
16968;DHT22;8600;54.338;10.128;2022-07-12T08:13:33;16.30;99.90
16968;DHT22;8600;54.338;10.128;2022-07-12T08:16:00;16.20;99.90
16968;DHT22;8600;54.338;10.128;2022-07-12T08:18:27;16.30;99.90
16968;DHT22;8600;54.338;10.128;2022-07-12T08:20:54;16.40;99.90
16968;DHT22;8600;54.338;10.128;2022-07-12T08:23:20;16.40;99.90
16968;DHT22;8600;54.338;10.128;2022-07-12T08:25:48;16.40;99.90
16968;DHT22;8600;54.338;10.128;2022-07-12T08:28:14;16.50;99.90
16968;DHT22;8600;54.338;10.128;2022-07-12T08:30:43;16.80;99.90
16968;DHT22;8600;54.338;10.128;2022-07-12T08:33:10;16.90;99.90
16968;DHT22;8600;54.338;10.128;2022-07-12T08:35:37;16.90;99.90
16968;DHT22;8600;54.338;10.128;2022-07-12T08:38:04;16.70;99.90
16968;DHT22;8600;54.338;10.128;2022-07-12T08:40:31;16.70;99.90
16968;DHT22;8600;54.338;10.128;2022-07-12T08:42:57;16.90;99.90
16968;DHT22;8600;54.338;10.128;2022-07-12T08:45:25;16.90;99.90
16968;DHT22;8600;54.338;10.128;2022-07-12T08:47:54;17.10;99.90
16968;DHT22;8600;54.338;10.128;2022-07-12T08:50:22;17.30;99.90
16968;DHT22;8600;54.338;10.128;2022-07-12T08:52:51;17.40;99.90
16968;DHT22;8600;54.338;10.128;2022-07-12T08:55:23;17.30;99.90
16968;DHT22;8600;54.338;10.128;2022-07-12T08:57:52;17.50;99.90
16968;DHT22;8600;54.338;10.128;2022-07-12T09:00:20;17.60;99.90
16968;DHT22;8600;54.338;10.128;2022-07-12T09:02:49;17.70;99.90
16968;DHT22;8600;54.338;10.128;2022-07-12T09:05:20;17.90;99.90
16968;DHT22;8600;54.338;10.128;2022-07-12T09:07:48;18.00;99.90
16968;DHT22;8600;54.338;10.128;2022-07-12T09:10:15;17.90;99.90
16968;DHT22;8600;54.338;10.128;2022-07-12T09:12:43;18.10;99.90
16968;DHT22;8600;54.338;10.128;2022-07-12T09:15:12;18.50;99.90
16968;DHT22;8600;54.338;10.128;2022-07-12T09:17:39;18.40;99.90
16968;DHT22;8600;54.338;10.128;2022-07-12T09:20:09;18.40;99.90
16968;DHT22;8600;54.338;10.128;2022-07-12T09:22:47;18.50;99.90
16968;DHT22;8600;54.338;10.128;2022-07-12T09:25:17;18.40;99.90
16968;DHT22;8600;54.338;10.128;2022-07-12T09:27:52;18.30;99.90
16968;DHT22;8600;54.338;10.128;2022-07-12T09:30:20;18.40;99.90
16968;DHT22;8600;54.338;10.128;2022-07-12T09:32:53;18.40;99.90
16968;DHT22;8600;54.338;10.128;2022-07-12T09:35:34;18.50;99.90
16968;DHT22;8600;54.338;10.128;2022-07-12T09:38:20;18.80;99.90
16968;DHT22;8600;54.338;10.128;2022-07-12T09:40:48;18.80;99.90
16968;DHT22;8600;54.338;10.128;2022-07-12T09:43:17;18.90;99.90
16968;DHT22;8600;54.338;10.128;2022-07-12T09:45:45;19.00;99.90
16968;DHT22;8600;54.338;10.128;2022-07-12T09:48:13;19.00;99.90
16968;DHT22;8600;54.338;10.128;2022-07-12T09:50:42;19.10;99.90
16968;DHT22;8600;54.338;10.128;2022-07-12T09:53:14;19.20;99.90
16968;DHT22;8600;54.338;10.128;2022-07-12T09:55:50;19.40;99.90
16968;DHT22;8600;54.338;10.128;2022-07-12T09:58:23;19.30;99.90
16968;DHT22;8600;54.338;10.128;2022-07-12T10:00:51;19.50;99.90
16968;DHT22;8600;54.338;10.128;2022-07-12T10:03:21;19.60;99.90
16968;DHT22;8600;54.338;10.128;2022-07-12T10:05:51;19.70;99.90
16968;DHT22;8600;54.338;10.128;2022-07-12T10:08:20;19.70;99.90
16968;DHT22;8600;54.338;10.128;2022-07-12T10:10:49;19.60;99.90
16968;DHT22;8600;54.338;10.128;2022-07-12T10:13:18;19.80;99.90
16968;DHT22;8600;54.338;10.128;2022-07-12T10:15:46;20.00;99.90
16968;DHT22;8600;54.338;10.128;2022-07-12T10:18:20;20.00;99.90
16968;DHT22;8600;54.338;10.128;2022-07-12T10:20:48;19.70;99.90
16968;DHT22;8600;54.338;10.128;2022-07-12T10:23:37;19.70;99.90
16968;DHT22;8600;54.338;10.128;2022-07-12T10:26:35;19.70;99.90
16968;DHT22;8600;54.338;10.128;2022-07-12T10:29:05;19.80;99.90
16968;DHT22;8600;54.338;10.128;2022-07-12T10:31:34;19.80;99.90
16968;DHT22;8600;54.338;10.128;2022-07-12T10:34:12;19.80;99.90
16968;DHT22;8600;54.338;10.128;2022-07-12T10:40:14;19.80;99.90
16968;DHT22;8600;54.338;10.128;2022-07-12T10:43:14;20.00;99.90
16968;DHT22;8600;54.338;10.128;2022-07-12T10:45:43;20.00;99.90
16968;DHT22;8600;54.338;10.128;2022-07-12T10:48:20;20.10;99.90
16968;DHT22;8600;54.338;10.128;2022-07-12T10:50:55;20.10;99.90
16968;DHT22;8600;54.338;10.128;2022-07-12T10:53:25;20.20;99.90
16968;DHT22;8600;54.338;10.128;2022-07-12T10:58:54;20.20;99.90
16968;DHT22;8600;54.338;10.128;2022-07-12T11:01:22;20.30;99.90
16968;DHT22;8600;54.338;10.128;2022-07-12T11:03:51;20.40;99.90
16968;DHT22;8600;54.338;10.128;2022-07-12T11:06:20;20.50;99.90
16968;DHT22;8600;54.338;10.128;2022-07-12T11:08:55;20.60;99.90
16968;DHT22;8600;54.338;10.128;2022-07-12T11:11:24;20.80;99.90
16968;DHT22;8600;54.338;10.128;2022-07-12T11:13:53;20.70;99.90
16968;DHT22;8600;54.338;10.128;2022-07-12T11:16:21;20.70;99.90
16968;DHT22;8600;54.338;10.128;2022-07-12T11:18:48;20.90;99.90
16968;DHT22;8600;54.338;10.128;2022-07-12T11:21:15;20.90;99.90
16968;DHT22;8600;54.338;10.128;2022-07-12T11:23:42;21.10;99.90
16968;DHT22;8600;54.338;10.128;2022-07-12T11:26:10;21.10;99.90
16968;DHT22;8600;54.338;10.128;2022-07-12T11:28:39;20.90;99.90
16968;DHT22;8600;54.338;10.128;2022-07-12T11:31:09;21.00;99.90
16968;DHT22;8600;54.338;10.128;2022-07-12T11:33:37;21.10;99.90
16968;DHT22;8600;54.338;10.128;2022-07-12T11:36:06;21.40;99.90
16968;DHT22;8600;54.338;10.128;2022-07-12T11:38:35;21.30;99.90
16968;DHT22;8600;54.338;10.128;2022-07-12T11:41:03;21.40;99.90
16968;DHT22;8600;54.338;10.128;2022-07-12T11:43:31;21.50;99.90
16968;DHT22;8600;54.338;10.128;2022-07-12T11:45:59;21.60;99.90
16968;DHT22;8600;54.338;10.128;2022-07-12T11:48:29;21.60;99.90
16968;DHT22;8600;54.338;10.128;2022-07-12T11:51:01;21.80;99.90
16968;DHT22;8600;54.338;10.128;2022-07-12T11:53:29;21.90;99.90
16968;DHT22;8600;54.338;10.128;2022-07-12T11:55:58;22.10;99.90
16968;DHT22;8600;54.338;10.128;2022-07-12T11:58:26;22.20;99.90
16968;DHT22;8600;54.338;10.128;2022-07-12T12:00:54;22.00;99.90
16968;DHT22;8600;54.338;10.128;2022-07-12T12:03:22;21.90;99.90
16968;DHT22;8600;54.338;10.128;2022-07-12T12:05:52;22.10;99.90
16968;DHT22;8600;54.338;10.128;2022-07-12T12:08:20;22.00;99.90
16968;DHT22;8600;54.338;10.128;2022-07-12T12:10:55;22.20;99.90
16968;DHT22;8600;54.338;10.128;2022-07-12T12:13:23;22.00;99.90
16968;DHT22;8600;54.338;10.128;2022-07-12T12:15:52;21.90;99.90
16968;DHT22;8600;54.338;10.128;2022-07-12T12:18:29;22.10;99.90
16968;DHT22;8600;54.338;10.128;2022-07-12T12:20:59;22.10;99.90
16968;DHT22;8600;54.338;10.128;2022-07-12T12:23:27;22.20;99.90
16968;DHT22;8600;54.338;10.128;2022-07-12T12:26:08;22.10;99.90
16968;DHT22;8600;54.338;10.128;2022-07-12T12:28:46;22.30;99.90
16968;DHT22;8600;54.338;10.128;2022-07-12T12:31:14;22.40;99.90
16968;DHT22;8600;54.338;10.128;2022-07-12T12:33:43;22.40;99.90
16968;DHT22;8600;54.338;10.128;2022-07-12T12:36:17;22.20;99.90
16968;DHT22;8600;54.338;10.128;2022-07-12T12:38:45;22.20;99.90
16968;DHT22;8600;54.338;10.128;2022-07-12T12:41:13;22.30;99.90
16968;DHT22;8600;54.338;10.128;2022-07-12T12:43:40;22.40;99.90
16968;DHT22;8600;54.338;10.128;2022-07-12T12:46:07;22.70;99.90
16968;DHT22;8600;54.338;10.128;2022-07-12T12:48:35;22.70;99.90
16968;DHT22;8600;54.338;10.128;2022-07-12T12:51:04;22.70;99.90
16968;DHT22;8600;54.338;10.128;2022-07-12T12:53:34;22.90;99.90
16968;DHT22;8600;54.338;10.128;2022-07-12T12:56:05;22.80;99.90
16968;DHT22;8600;54.338;10.128;2022-07-12T12:58:32;22.60;99.90
16968;DHT22;8600;54.338;10.128;2022-07-12T13:00:59;22.70;99.90
16968;DHT22;8600;54.338;10.128;2022-07-12T13:03:26;22.60;99.90
16968;DHT22;8600;54.338;10.128;2022-07-12T13:05:54;22.50;99.90
16968;DHT22;8600;54.338;10.128;2022-07-12T13:08:21;22.60;99.90
16968;DHT22;8600;54.338;10.128;2022-07-12T13:10:49;22.90;99.90
16968;DHT22;8600;54.338;10.128;2022-07-12T13:13:38;22.90;99.90
16968;DHT22;8600;54.338;10.128;2022-07-12T13:16:06;22.90;99.90
16968;DHT22;8600;54.338;10.128;2022-07-12T13:18:33;22.90;99.90
16968;DHT22;8600;54.338;10.128;2022-07-12T13:21:00;22.80;99.90
16968;DHT22;8600;54.338;10.128;2022-07-12T13:23:27;23.00;99.90
16968;DHT22;8600;54.338;10.128;2022-07-12T13:25:55;23.00;99.90
16968;DHT22;8600;54.338;10.128;2022-07-12T13:28:22;23.30;99.90
16968;DHT22;8600;54.338;10.128;2022-07-12T13:30:49;23.40;99.90
16968;DHT22;8600;54.338;10.128;2022-07-12T13:33:20;23.20;99.90
16968;DHT22;8600;54.338;10.128;2022-07-12T13:35:47;23.00;99.90
16968;DHT22;8600;54.338;10.128;2022-07-12T13:38:14;23.10;99.90
16968;DHT22;8600;54.338;10.128;2022-07-12T13:40:41;23.10;99.90
16968;DHT22;8600;54.338;10.128;2022-07-12T13:43:09;23.30;99.90
16968;DHT22;8600;54.338;10.128;2022-07-12T13:45:36;23.30;99.90
16968;DHT22;8600;54.338;10.128;2022-07-12T13:48:04;23.40;99.90
16968;DHT22;8600;54.338;10.128;2022-07-12T13:50:31;23.30;99.90
16968;DHT22;8600;54.338;10.128;2022-07-12T13:52:58;23.50;99.90
16968;DHT22;8600;54.338;10.128;2022-07-12T13:55:25;23.50;99.90
16968;DHT22;8600;54.338;10.128;2022-07-12T13:57:52;23.60;99.90
16968;DHT22;8600;54.338;10.128;2022-07-12T14:00:21;23.70;99.90
16968;DHT22;8600;54.338;10.128;2022-07-12T14:02:49;23.60;99.90
16968;DHT22;8600;54.338;10.128;2022-07-12T14:05:17;23.80;99.90
16968;DHT22;8600;54.338;10.128;2022-07-12T14:07:46;23.70;99.90
16968;DHT22;8600;54.338;10.128;2022-07-12T14:10:13;23.60;99.90
16968;DHT22;8600;54.338;10.128;2022-07-12T14:12:40;23.50;99.90
16968;DHT22;8600;54.338;10.128;2022-07-12T14:15:09;23.40;99.90
16968;DHT22;8600;54.338;10.128;2022-07-12T14:18:04;23.40;99.90
16968;DHT22;8600;54.338;10.128;2022-07-12T14:20:32;23.10;99.90
16968;DHT22;8600;54.338;10.128;2022-07-12T14:23:00;23.20;99.90
16968;DHT22;8600;54.338;10.128;2022-07-12T14:25:27;23.30;99.90
16968;DHT22;8600;54.338;10.128;2022-07-12T14:27:54;23.40;99.90
16968;DHT22;8600;54.338;10.128;2022-07-12T14:30:21;23.50;99.90
16968;DHT22;8600;54.338;10.128;2022-07-12T14:32:48;23.40;99.90
16968;DHT22;8600;54.338;10.128;2022-07-12T14:35:16;23.50;99.90
16968;DHT22;8600;54.338;10.128;2022-07-12T14:37:43;23.30;99.90
16968;DHT22;8600;54.338;10.128;2022-07-12T14:40:10;23.30;99.90
16968;DHT22;8600;54.338;10.128;2022-07-12T14:42:38;23.30;99.90
16968;DHT22;8600;54.338;10.128;2022-07-12T14:45:06;23.60;99.90
16968;DHT22;8600;54.338;10.128;2022-07-12T14:47:33;23.40;99.90
16968;DHT22;8600;54.338;10.128;2022-07-12T14:50:00;23.30;99.90
16968;DHT22;8600;54.338;10.128;2022-07-12T14:52:29;23.40;99.90
16968;DHT22;8600;54.338;10.128;2022-07-12T14:54:56;23.40;99.90
16968;DHT22;8600;54.338;10.128;2022-07-12T14:57:23;23.40;99.90
16968;DHT22;8600;54.338;10.128;2022-07-12T14:59:50;23.30;99.90
16968;DHT22;8600;54.338;10.128;2022-07-12T15:02:17;23.50;99.90
16968;DHT22;8600;54.338;10.128;2022-07-12T15:04:44;23.30;99.90
16968;DHT22;8600;54.338;10.128;2022-07-12T15:07:11;23.40;99.90
16968;DHT22;8600;54.338;10.128;2022-07-12T15:09:40;23.30;99.90
16968;DHT22;8600;54.338;10.128;2022-07-12T15:12:07;23.60;99.90
16968;DHT22;8600;54.338;10.128;2022-07-12T15:14:34;23.50;99.90
16968;DHT22;8600;54.338;10.128;2022-07-12T15:17:01;23.60;99.90
16968;DHT22;8600;54.338;10.128;2022-07-12T15:19:28;23.70;99.90
16968;DHT22;8600;54.338;10.128;2022-07-12T15:21:55;23.60;99.90
16968;DHT22;8600;54.338;10.128;2022-07-12T15:24:22;23.60;99.90
16968;DHT22;8600;54.338;10.128;2022-07-12T15:26:50;23.60;99.90
16968;DHT22;8600;54.338;10.128;2022-07-12T15:29:17;23.40;99.90
16968;DHT22;8600;54.338;10.128;2022-07-12T15:31:44;23.50;99.90
16968;DHT22;8600;54.338;10.128;2022-07-12T15:34:11;23.40;99.90
16968;DHT22;8600;54.338;10.128;2022-07-12T15:36:38;23.20;99.90
16968;DHT22;8600;54.338;10.128;2022-07-12T15:39:05;23.10;99.90
16968;DHT22;8600;54.338;10.128;2022-07-12T15:41:33;23.10;99.90
16968;DHT22;8600;54.338;10.128;2022-07-12T15:44:02;23.20;99.90